Balerno, United Kingdom

2:46 AM GMT on February 08, 2016 (GMT +0000)
Mid Kinleith | | Change Station
CLOSE
Current Station
Personal Weather Station
Location: Currie, SCOTLAND
Elevation: 725 ft
Nearby Weather Stations

Elev 725 ft 55.89 °N, 3.30 °W | Updated 4 hours ago

Overcast
Overcast
41.2 °F
Feels Like 34 °F
N
14.5
Wind Variable Wind from WSW
Gusts 25.9 mph

Today
High -- | Low -- °F
--% Chance of Precip.
Yesterday
High -- | Low -- °F
Precip. -- in
Pressure 28.56 in
Visibility 6.2 miles
Clouds Overcast 2400 ft
Windchill 34 °F
Dew Point 35.2 °F
Humidity 79%
Rainfall in
Snow Depth Not available.
7:54 AM 5:00 PM
Waning Crescent, 0% visible
METAR EGPH 080220Z AUTO 22013KT 9999 OVC024 05/03 Q0967
Pressure 28.56 in
Visibility 6.2 miles
Clouds Overcast 2400 ft
Windchill 34 °F
Dew Point 35.2 °F
Humidity 79%
Rainfall in
Snow Depth Not available.
7:54 AM 5:00 PM
Waning Crescent, 0% visible
METAR EGPH 080220Z AUTO 22013KT 9999 OVC024 05/03 Q0967

10-Day Weather Forecast

Almanac

Astronomy

Feb. 08, 2016 Rise Set
Actual Time
Civil Twilight
Nautical Twilight
Astronomical Twilight
Moon
Length of Visible Light
Length of Day
Tomorrow will be .
, % of the Moon is Illuminated

Today's Extremes

Country Highs Country Lows

Community

WunderPhotos

Upload Photos

1,891,373 photos uploaded!

WunderBlog® & News

Nearby

Air Quality

  Air Quality AQ Index Pollutant
Not available.

Snow Depth

Station Depth Elevation

Earthquake Activity

City Distance Mag. Time & Date
Minimum magnitude displayed is 2.5.

Coastal Water Temperatures

Place Temperature

Stations

Nearby Weather Stations

Station Location Temp. Windchill Dew Point Humidity Wind Precip. Elev Updated Type